Time;durP1;ratioP1;P1;durP2;ratioP2;P2;SDS_P1;SDS_P2;PMS_P1;PMS_P2;Temp;Humidity;BMP_temperature;BMP_pressure;BME280_temperature;BME280_humidity;BME280_pressure;Samples;Min_cycle;Max_cycle;Signal;HPM_P1;HPM_P2
2022/01/22 00:00:12;;;;;;;22.02;6.82;;;;;;;;;;4935181;28;20073;-67
2022/01/22 00:02:37;;;;;;;18.73;7.10;;;;;;;;;;4934750;28;20044;-67
2022/01/22 00:05:04;;;;;;;18.65;6.15;;;;;;;;;;4951639;28;20042;-66
2022/01/22 00:07:29;;;;;;;20.75;7.05;;;;;;;;;;4953339;28;20326;-66
2022/01/22 00:10:00;;;;;;;19.60;6.95;;;;;;;;;;4952449;28;20333;-67
2022/01/22 00:12:42;;;;;;;17.95;6.63;;;;;;;;;;4952242;28;20365;-67
2022/01/22 00:15:12;;;;;;;18.60;6.50;;;;;;;;;;4952128;28;20426;-67
2022/01/22 00:17:37;;;;;;;14.80;5.40;;;;;;;;;;4951858;28;20420;-67
2022/01/22 00:20:04;;;;;;;15.57;5.65;;;;;;;;;;4934343;28;20299;-67
2022/01/22 00:22:32;;;;;;;17.73;5.80;;;;;;;;;;4918031;28;20353;-68
2022/01/22 00:25:00;;;;;;;16.42;6.03;;;;;;;;;;4951776;28;20323;-66
2022/01/22 00:27:26;;;;;;;14.85;5.68;;;;;;;;;;4934423;28;20451;-67
2022/01/22 00:29:52;;;;;;;18.48;6.50;;;;;;;;;;4952117;28;20388;-67
2022/01/22 00:32:17;;;;;;;13.70;5.03;;;;;;;;;;4934296;28;20417;-67
2022/01/22 00:34:43;;;;;;;19.25;5.22;;;;;;;;;;4952041;28;20345;-68
2022/01/22 00:37:08;;;;;;;16.88;6.50;;;;;;;;;;4933984;28;20410;-66
2022/01/22 00:39:34;;;;;;;15.40;6.20;;;;;;;;;;4934029;28;20432;-66
2022/01/22 00:42:01;;;;;;;14.85;5.78;;;;;;;;;;4951638;28;20429;-67
2022/01/22 00:44:26;;;;;;;15.02;5.45;;;;;;;;;;4951767;28;20526;-66
2022/01/22 00:46:52;;;;;;;14.65;5.65;;;;;;;;;;4933489;28;20460;-67
2022/01/22 00:49:17;;;;;;;14.57;5.45;;;;;;;;;;4951241;28;20084;-66
2022/01/22 00:51:42;;;;;;;13.48;5.15;;;;;;;;;;4951296;28;20388;-67
2022/01/22 00:54:08;;;;;;;18.50;5.88;;;;;;;;;;4952221;28;20421;-68
2022/01/22 00:56:33;;;;;;;13.45;6.07;;;;;;;;;;4951451;28;20029;-67
2022/01/22 00:58:58;;;;;;;10.73;4.82;;;;;;;;;;4950840;28;20361;-70
2022/01/22 01:01:24;;;;;;;15.02;5.43;;;;;;;;;;4944592;28;20467;-67
2022/01/22 01:03:49;;;;;;;18.27;5.68;;;;;;;;;;4939734;28;20477;-67
2022/01/22 01:06:15;;;;;;;12.23;4.70;;;;;;;;;;4951094;28;20460;-68
2022/01/22 01:08:40;;;;;;;18.55;5.57;;;;;;;;;;4951541;28;20526;-67
2022/01/22 01:11:06;;;;;;;16.52;5.60;;;;;;;;;;4950754;28;20337;-67
2022/01/22 01:13:37;;;;;;;12.63;5.43;;;;;;;;;;4952511;28;20345;-67
2022/01/22 01:16:16;;;;;;;17.92;6.55;;;;;;;;;;4934284;28;20357;-66
2022/01/22 01:32:31;;;;;;;14.68;5.32;;;;;;;;;;4936437;28;20167;-67
2022/01/22 01:34:57;;;;;;;24.15;6.68;;;;;;;;;;4951014;28;20348;-67
2022/01/22 01:37:24;;;;;;;14.60;5.60;;;;;;;;;;4950201;28;20384;-67
2022/01/22 01:39:53;;;;;;;12.73;5.82;;;;;;;;;;4950622;28;20500;-66
2022/01/22 01:42:28;;;;;;;12.63;5.25;;;;;;;;;;4951712;28;20338;-66
2022/01/22 01:44:53;;;;;;;21.40;6.57;;;;;;;;;;4950053;28;20338;-68
2022/01/22 01:47:19;;;;;;;14.23;5.78;;;;;;;;;;4949728;28;20356;-67
2022/01/22 01:49:45;;;;;;;12.38;4.57;;;;;;;;;;4950613;28;20429;-67
2022/01/22 01:52:16;;;;;;;16.98;5.55;;;;;;;;;;4933116;28;20029;-66
2022/01/22 01:55:01;;;;;;;14.65;4.97;;;;;;;;;;4949984;28;20482;-68
2022/01/22 01:57:40;;;;;;;12.20;5.60;;;;;;;;;;4950133;28;20510;-68
2022/01/22 02:00:16;;;;;;;16.57;6.37;;;;;;;;;;4949521;28;20372;-67
2022/01/22 02:02:42;;;;;;;15.35;5.05;;;;;;;;;;4932264;28;20730;-67
2022/01/22 02:05:11;;;;;;;12.63;4.97;;;;;;;;;;4949712;28;20511;-67
2022/01/22 02:07:39;;;;;;;15.75;5.38;;;;;;;;;;4949932;28;20468;-66
2022/01/22 02:10:06;;;;;;;13.40;5.68;;;;;;;;;;4949837;28;20369;-67
2022/01/22 02:12:57;;;;;;;10.90;5.28;;;;;;;;;;4933036;28;20432;-67
2022/01/22 02:23:52;;;;;;;12.57;3.80;;;;;;;;;;4908412;28;20481;-67
2022/01/22 02:26:18;;;;;;;11.95;4.50;;;;;;;;;;4941960;28;20503;-66
2022/01/22 02:28:50;;;;;;;10.90;4.57;;;;;;;;;;4949555;28;20433;-66
2022/01/22 02:31:28;;;;;;;12.65;5.03;;;;;;;;;;4949845;28;20429;-66
2022/01/22 02:36:27;;;;;;;18.23;6.50;;;;;;;;;;4949799;28;20421;-68
2022/01/22 02:39:00;;;;;;;10.00;4.15;;;;;;;;;;4949587;28;20465;-68
2022/01/22 02:41:26;;;;;;;16.48;4.05;;;;;;;;;;4948545;28;20140;-67
2022/01/22 02:43:54;;;;;;;15.32;5.20;;;;;;;;;;4948170;28;20495;-66
2022/01/22 02:46:23;;;;;;;10.88;4.28;;;;;;;;;;4949895;28;20113;-67
2022/01/22 02:48:48;;;;;;;11.38;4.78;;;;;;;;;;4949847;28;20491;-67
2022/01/22 02:51:13;;;;;;;12.95;3.97;;;;;;;;;;4949627;28;20440;-67
2022/01/22 02:53:39;;;;;;;11.38;4.68;;;;;;;;;;4948210;28;20340;-66
2022/01/22 02:56:05;;;;;;;15.18;5.40;;;;;;;;;;4949576;28;20498;-67
2022/01/22 02:58:30;;;;;;;11.25;4.88;;;;;;;;;;4949703;28;20383;-67
2022/01/22 03:00:56;;;;;;;9.80;4.63;;;;;;;;;;4949139;28;20353;-67
2022/01/22 03:03:21;;;;;;;13.10;4.55;;;;;;;;;;4949927;28;20421;-67
2022/01/22 03:05:46;;;;;;;9.50;4.10;;;;;;;;;;4957788;28;20115;-68
2022/01/22 03:08:13;;;;;;;11.20;4.72;;;;;;;;;;4970259;28;20385;-66
2022/01/22 03:10:41;;;;;;;12.35;4.90;;;;;;;;;;4969918;28;20450;-67
2022/01/22 03:13:38;;;;;;;10.30;4.78;;;;;;;;;;4974478;28;20371;-66
2022/01/22 03:21:11;;;;;;;17.73;4.40;;;;;;;;;;4973399;28;20037;-66
2022/01/22 03:29:17;;;;;;;10.10;3.67;;;;;;;;;;4972627;28;20049;-67
2022/01/22 03:31:43;;;;;;;11.43;3.92;;;;;;;;;;4972672;28;20156;-67
2022/01/22 03:34:09;;;;;;;12.27;3.88;;;;;;;;;;4973466;28;20025;-66
2022/01/22 03:36:35;;;;;;;11.85;4.55;;;;;;;;;;4973383;28;20049;-66
2022/01/22 03:39:06;;;;;;;11.40;4.22;;;;;;;;;;4972735;28;20455;-67
2022/01/22 03:41:31;;;;;;;11.25;4.00;;;;;;;;;;4972021;28;20444;-68
2022/01/22 03:43:57;;;;;;;10.02;3.75;;;;;;;;;;4955062;28;20439;-66
2022/01/22 03:46:22;;;;;;;7.68;3.70;;;;;;;;;;4953909;28;20447;-67
2022/01/22 03:48:48;;;;;;;10.48;4.32;;;;;;;;;;4972388;28;20440;-68
2022/01/22 03:51:13;;;;;;;11.35;3.75;;;;;;;;;;4954664;28;20313;-66
2022/01/22 03:53:39;;;;;;;10.52;4.75;;;;;;;;;;4954540;28;20399;-67
2022/01/22 03:56:06;;;;;;;10.48;4.40;;;;;;;;;;4972125;28;20029;-66
2022/01/22 03:58:36;;;;;;;11.02;4.00;;;;;;;;;;4954777;28;20475;-66
2022/01/22 04:03:56;;;;;;;8.07;3.05;;;;;;;;;;4972903;28;20494;-66
2022/01/22 04:08:56;;;;;;;11.82;4.00;;;;;;;;;;4954550;28;20470;-66
2022/01/22 04:11:22;;;;;;;10.48;3.90;;;;;;;;;;4954484;28;20494;-67
2022/01/22 04:13:50;;;;;;;8.95;3.55;;;;;;;;;;4971873;28;20491;-67
2022/01/22 04:16:16;;;;;;;9.90;3.38;;;;;;;;;;4954582;28;20120;-67
2022/01/22 04:26:56;;;;;;;6.93;3.35;;;;;;;;;;4972719;28;20551;-67
2022/01/22 04:29:23;;;;;;;7.45;3.67;;;;;;;;;;4972598;28;20439;-66
2022/01/22 04:31:48;;;;;;;8.93;3.00;;;;;;;;;;4970999;28;20021;-68
2022/01/22 04:34:13;;;;;;;5.22;2.83;;;;;;;;;;4971266;28;20444;-67
2022/01/22 04:36:39;;;;;;;9.60;3.38;;;;;;;;;;4971322;28;20428;-66
2022/01/22 04:39:05;;;;;;;9.25;2.95;;;;;;;;;;4971203;28;20419;-67
2022/01/22 04:41:30;;;;;;;8.23;3.88;;;;;;;;;;4972344;28;20552;-66
2022/01/22 04:44:00;;;;;;;6.57;3.33;;;;;;;;;;4971062;28;20447;-67
2022/01/22 04:46:48;;;;;;;7.70;2.80;;;;;;;;;;4971505;28;20494;-68
2022/01/22 04:52:29;;;;;;;8.85;3.83;;;;;;;;;;4956183;28;20038;-67
2022/01/22 04:54:59;;;;;;;7.95;3.85;;;;;;;;;;4957088;28;20107;-67
2022/01/22 04:57:26;;;;;;;6.13;2.58;;;;;;;;;;4956115;28;20029;-66
2022/01/22 04:59:52;;;;;;;6.93;3.15;;;;;;;;;;4953189;28;20352;-67
2022/01/22 05:02:17;;;;;;;8.43;3.05;;;;;;;;;;4970824;28;20416;-67
2022/01/22 05:04:42;;;;;;;7.50;2.90;;;;;;;;;;4970707;28;20499;-66
2022/01/22 05:07:09;;;;;;;6.75;3.08;;;;;;;;;;4970202;28;20394;-66
2022/01/22 05:09:35;;;;;;;6.45;3.13;;;;;;;;;;4971422;28;20499;-67
2022/01/22 05:12:00;;;;;;;6.13;2.38;;;;;;;;;;4952688;28;20432;-66
2022/01/22 05:14:25;;;;;;;7.40;2.97;;;;;;;;;;4970873;28;20406;-67
2022/01/22 05:16:51;;;;;;;7.13;2.97;;;;;;;;;;4970186;28;20462;-66
2022/01/22 05:19:27;;;;;;;6.80;3.33;;;;;;;;;;4971624;28;20382;-67
2022/01/22 05:21:57;;;;;;;9.55;3.30;;;;;;;;;;4972158;28;20304;-66
2022/01/22 05:24:27;;;;;;;8.93;3.45;;;;;;;;;;4953720;28;20339;-66
2022/01/22 05:27:16;;;;;;;5.30;2.47;;;;;;;;;;4970081;28;20043;-67
2022/01/22 05:38:04;;;;;;;7.32;2.85;;;;;;;;;;4970289;28;20486;-67
2022/01/22 05:40:30;;;;;;;8.07;3.08;;;;;;;;;;4971803;28;20428;-67
2022/01/22 05:42:55;;;;;;;6.45;3.10;;;;;;;;;;4952994;28;20447;-67
2022/01/22 05:45:21;;;;;;;9.45;3.50;;;;;;;;;;4951968;28;20095;-66
2022/01/22 05:47:46;;;;;;;6.38;2.58;;;;;;;;;;4970077;28;20459;-67
2022/01/22 05:50:13;;;;;;;6.60;3.20;;;;;;;;;;4969942;28;20486;-67
2022/01/22 05:52:53;;;;;;;6.50;2.83;;;;;;;;;;4971068;28;20511;-67
2022/01/22 05:59:36;;;;;;;5.93;2.78;;;;;;;;;;4969936;28;20400;-67
2022/01/22 06:00:54;;;;;;;6.35;2.78;;;;;;;;;;4969888;28;20473;-66
2022/01/22 06:03:19;;;;;;;7.63;2.58;;;;;;;;;;4969800;28;20336;-67
2022/01/22 06:05:44;;;;;;;9.93;3.63;;;;;;;;;;4969368;28;20442;-67
2022/01/22 06:08:15;;;;;;;12.52;3.65;;;;;;;;;;4952026;28;20425;-67
2022/01/22 06:10:40;;;;;;;13.93;3.60;;;;;;;;;;4970443;28;20055;-66
2022/01/22 06:13:18;;;;;;;8.02;3.10;;;;;;;;;;4971545;28;20428;-66
2022/01/22 06:15:44;;;;;;;11.02;3.80;;;;;;;;;;4970461;28;20477;-67
2022/01/22 06:18:09;;;;;;;9.02;3.63;;;;;;;;;;4951863;28;20340;-66
2022/01/22 06:20:34;;;;;;;8.93;3.60;;;;;;;;;;4952233;28;20026;-68
2022/01/22 06:23:01;;;;;;;8.20;3.70;;;;;;;;;;4952188;28;20337;-67
2022/01/22 06:25:26;;;;;;;9.15;3.67;;;;;;;;;;4969397;28;20432;-66
2022/01/22 06:27:51;;;;;;;3.78;2.08;;;;;;;;;;4969432;28;20438;-66
2022/01/22 06:30:17;;;;;;;7.93;3.28;;;;;;;;;;4969317;28;20355;-66
2022/01/22 06:32:42;;;;;;;7.25;3.22;;;;;;;;;;4952271;28;20076;-66
2022/01/22 06:35:08;;;;;;;6.55;3.45;;;;;;;;;;4969283;28;20355;-66
2022/01/22 06:37:33;;;;;;;11.40;3.28;;;;;;;;;;4952178;28;20356;-67
2022/01/22 06:42:33;;;;;;;8.07;2.90;;;;;;;;;;4953035;28;20069;-67
2022/01/22 06:44:59;;;;;;;8.07;3.13;;;;;;;;;;4969057;28;20083;-66
2022/01/22 06:47:26;;;;;;;11.70;3.33;;;;;;;;;;4956005;28;20436;-66
2022/01/22 06:49:51;;;;;;;7.68;3.40;;;;;;;;;;4955237;28;20466;-66
2022/01/22 06:52:17;;;;;;;9.45;3.45;;;;;;;;;;4955617;28;20100;-67
2022/01/22 06:54:43;;;;;;;9.30;3.53;;;;;;;;;;4973276;28;20467;-66
2022/01/22 06:57:09;;;;;;;11.35;3.25;;;;;;;;;;4973087;28;20432;-67
2022/01/22 06:59:34;;;;;;;7.07;2.67;;;;;;;;;;4973351;28;20432;-67
2022/01/22 07:01:59;;;;;;;7.70;2.90;;;;;;;;;;4972818;28;20494;-67
2022/01/22 07:04:25;;;;;;;7.97;2.80;;;;;;;;;;4955048;28;20419;-67
2022/01/22 07:06:50;;;;;;;10.25;3.33;;;;;;;;;;4973908;28;20410;-67
2022/01/22 07:09:15;;;;;;;7.47;3.28;;;;;;;;;;4973079;28;20412;-66
2022/01/22 07:11:41;;;;;;;8.38;2.88;;;;;;;;;;4973409;28;21047;-66
2022/01/22 07:14:06;;;;;;;9.20;3.00;;;;;;;;;;4972672;28;20371;-66
2022/01/22 07:16:31;;;;;;;6.88;2.85;;;;;;;;;;4972864;28;20379;-66
2022/01/22 07:19:01;;;;;;;10.45;2.95;;;;;;;;;;4955111;28;20373;-67
2022/01/22 07:21:29;;;;;;;6.97;3.40;;;;;;;;;;4973106;28;20394;-67
2022/01/22 07:24:22;;;;;;;5.43;2.63;;;;;;;;;;4972622;28;20490;-67
2022/01/22 07:26:40;;;;;;;10.98;2.80;;;;;;;;;;4972352;28;20068;-66
2022/01/22 07:29:05;;;;;;;7.05;2.70;;;;;;;;;;4972672;28;20421;-67
2022/01/22 07:31:30;;;;;;;9.98;3.42;;;;;;;;;;4972868;28;20432;-68
2022/01/22 07:33:55;;;;;;;6.53;3.05;;;;;;;;;;4972646;28;20451;-67
2022/01/22 07:36:21;;;;;;;4.80;2.83;;;;;;;;;;4972268;28;20471;-67
2022/01/22 07:38:46;;;;;;;5.72;2.88;;;;;;;;;;4955486;28;20313;-66
2022/01/22 07:41:12;;;;;;;5.30;2.80;;;;;;;;;;4954969;28;20305;-67
2022/01/22 07:43:38;;;;;;;8.82;2.78;;;;;;;;;;4973319;28;20439;-67
2022/01/22 07:46:05;;;;;;;8.77;3.35;;;;;;;;;;4938109;28;20371;-67
2022/01/22 07:48:30;;;;;;;10.15;3.90;;;;;;;;;;4954309;28;20363;-67
2022/01/22 07:50:55;;;;;;;8.48;3.17;;;;;;;;;;4972558;28;20056;-67
2022/01/22 07:53:21;;;;;;;7.28;3.22;;;;;;;;;;4972262;28;20376;-66
2022/01/22 07:55:46;;;;;;;6.93;3.03;;;;;;;;;;4954409;28;20383;-67
2022/01/22 07:58:11;;;;;;;7.72;3.30;;;;;;;;;;4972008;28;20432;-67
2022/01/22 08:00:37;;;;;;;9.35;3.22;;;;;;;;;;4971518;28;20419;-67
2022/01/22 08:03:03;;;;;;;11.48;3.50;;;;;;;;;;4972850;28;20350;-67
2022/01/22 08:05:29;;;;;;;5.40;2.85;;;;;;;;;;4971116;28;20463;-68
2022/01/22 08:07:54;;;;;;;8.80;3.72;;;;;;;;;;4971654;28;20098;-67
2022/01/22 08:10:19;;;;;;;4.85;2.88;;;;;;;;;;4972382;28;20108;-66
2022/01/22 08:12:48;;;;;;;7.50;3.10;;;;;;;;;;4954301;28;20064;-66
2022/01/22 08:15:15;;;;;;;8.48;2.50;;;;;;;;;;4954034;28;20506;-67
2022/01/22 08:17:41;;;;;;;6.05;2.53;;;;;;;;;;4972709;28;20502;-66
2022/01/22 08:20:09;;;;;;;6.07;2.80;;;;;;;;;;4953886;28;20440;-67
2022/01/22 08:22:34;;;;;;;6.53;3.50;;;;;;;;;;4953971;28;20325;-66
2022/01/22 08:25:01;;;;;;;5.68;2.80;;;;;;;;;;4971679;28;20339;-66
2022/01/22 08:29:55;;;;;;;5.18;2.83;;;;;;;;;;4971794;28;20463;-66
2022/01/22 08:37:36;;;;;;;6.20;2.60;;;;;;;;;;4972186;28;20347;-67
2022/01/22 08:40:04;;;;;;;6.15;3.25;;;;;;;;;;4971231;28;20347;-67
2022/01/22 08:42:29;;;;;;;6.75;3.42;;;;;;;;;;4971404;28;20380;-66
2022/01/22 08:44:54;;;;;;;8.75;2.97;;;;;;;;;;4971746;28;20051;-66
2022/01/22 08:47:21;;;;;;;6.38;3.05;;;;;;;;;;4970842;28;20344;-67
2022/01/22 08:49:46;;;;;;;6.03;2.80;;;;;;;;;;4971407;28;20321;-67
2022/01/22 08:52:14;;;;;;;9.55;3.08;;;;;;;;;;4970901;28;20352;-66
2022/01/22 08:54:39;;;;;;;5.80;2.78;;;;;;;;;;4970697;28;20049;-66
2022/01/22 08:57:05;;;;;;;6.60;3.13;;;;;;;;;;4954042;28;20496;-66
2022/01/22 08:59:31;;;;;;;8.00;3.53;;;;;;;;;;4970385;28;20448;-66
2022/01/22 09:01:57;;;;;;;6.32;2.97;;;;;;;;;;4971425;28;20427;-67
2022/01/22 09:04:22;;;;;;;7.00;3.38;;;;;;;;;;4953006;28;20427;-68
2022/01/22 09:06:47;;;;;;;5.60;3.03;;;;;;;;;;4970278;28;20111;-67
2022/01/22 09:09:13;;;;;;;7.30;3.03;;;;;;;;;;4970548;28;20453;-67
2022/01/22 09:11:41;;;;;;;6.25;2.65;;;;;;;;;;4970734;28;20372;-66
2022/01/22 09:14:09;;;;;;;8.18;4.47;;;;;;;;;;4953372;28;20090;-66
2022/01/22 09:16:35;;;;;;;8.35;3.40;;;;;;;;;;4970726;28;20348;-66
2022/01/22 09:19:06;;;;;;;7.90;3.63;;;;;;;;;;4952358;28;20360;-71
2022/01/22 09:21:41;;;;;;;8.57;3.83;;;;;;;;;;4954155;28;20317;-66
2022/01/22 09:24:08;;;;;;;6.50;4.00;;;;;;;;;;4971197;28;20452;-66
2022/01/22 09:26:33;;;;;;;11.85;4.07;;;;;;;;;;4952088;28;20498;-66
2022/01/22 09:29:00;;;;;;;9.40;3.47;;;;;;;;;;4952881;28;20472;-67
2022/01/22 09:31:27;;;;;;;10.63;3.85;;;;;;;;;;4953517;28;20029;-66
2022/01/22 09:33:56;;;;;;;8.73;3.42;;;;;;;;;;4970358;28;20305;-67
2022/01/22 09:36:21;;;;;;;5.80;2.83;;;;;;;;;;4970449;28;20418;-67
2022/01/22 09:38:47;;;;;;;10.02;4.18;;;;;;;;;;4952618;28;20309;-68
2022/01/22 09:41:14;;;;;;;7.95;3.20;;;;;;;;;;4952887;28;20452;-67
2022/01/22 09:43:39;;;;;;;8.45;3.63;;;;;;;;;;4951899;28;20371;-68
2022/01/22 09:46:07;;;;;;;7.68;3.97;;;;;;;;;;4969784;28;20112;-67
2022/01/22 09:48:32;;;;;;;8.50;3.88;;;;;;;;;;4952436;28;20391;-70
2022/01/22 09:50:57;;;;;;;6.65;3.38;;;;;;;;;;4970064;28;20030;-66
2022/01/22 09:53:22;;;;;;;6.80;3.63;;;;;;;;;;4951938;28;20406;-66
2022/01/22 09:55:48;;;;;;;7.70;3.97;;;;;;;;;;4970422;28;20555;-66
2022/01/22 09:58:13;;;;;;;8.30;3.92;;;;;;;;;;4969634;28;20443;-67
2022/01/22 10:00:38;;;;;;;8.90;3.47;;;;;;;;;;4970190;28;20420;-67
2022/01/22 10:03:14;;;;;;;9.30;3.50;;;;;;;;;;4952343;28;20515;-67
2022/01/22 10:05:40;;;;;;;4.75;2.58;;;;;;;;;;4948319;28;20461;-67
2022/01/22 10:08:29;;;;;;;7.32;3.97;;;;;;;;;;4948602;28;20424;-67
2022/01/22 10:10:56;;;;;;;10.65;4.20;;;;;;;;;;4950151;28;20464;-67
2022/01/22 10:13:43;;;;;;;7.35;3.13;;;;;;;;;;4950684;28;20025;-67
2022/01/22 10:16:14;;;;;;;6.07;3.67;;;;;;;;;;4950265;28;20444;-67
2022/01/22 10:18:39;;;;;;;5.97;3.70;;;;;;;;;;4951224;28;20412;-66
2022/01/22 10:21:09;;;;;;;14.45;4.32;;;;;;;;;;4949493;28;20440;-71
2022/01/22 10:23:39;;;;;;;11.32;4.43;;;;;;;;;;4964762;28;20411;-68
2022/01/22 10:26:12;;;;;;;7.18;4.03;;;;;;;;;;4949652;28;20109;-68
2022/01/22 10:28:48;;;;;;;11.05;4.53;;;;;;;;;;4948662;28;20348;-66
2022/01/22 10:31:27;;;;;;;8.98;3.85;;;;;;;;;;4948509;28;20322;-67
2022/01/22 10:34:10;;;;;;;7.75;3.70;;;;;;;;;;4949933;28;20489;-66
2022/01/22 10:36:36;;;;;;;11.27;4.05;;;;;;;;;;4950223;28;20530;-68
2022/01/22 10:39:06;;;;;;;8.38;3.78;;;;;;;;;;4949885;28;20500;-66
2022/01/22 10:41:41;;;;;;;10.48;4.22;;;;;;;;;;4950117;28;20030;-67
2022/01/22 10:44:10;;;;;;;10.00;4.03;;;;;;;;;;4950446;28;20026;-66
2022/01/22 10:46:50;;;;;;;7.00;3.92;;;;;;;;;;4950132;28;20396;-66
2022/01/22 10:49:22;;;;;;;6.80;3.53;;;;;;;;;;4949859;28;20329;-67
2022/01/22 10:51:50;;;;;;;10.60;3.63;;;;;;;;;;4949694;28;20460;-67
2022/01/22 10:54:19;;;;;;;7.80;4.40;;;;;;;;;;4964670;28;20364;-66
2022/01/22 10:56:45;;;;;;;10.60;4.07;;;;;;;;;;4949032;28;20344;-68
2022/01/22 10:59:12;;;;;;;8.32;3.85;;;;;;;;;;4949808;28;20456;-66
2022/01/22 11:01:51;;;;;;;9.75;4.05;;;;;;;;;;4948000;28;20444;-67
2022/01/22 11:04:26;;;;;;;7.97;4.20;;;;;;;;;;4949659;28;20392;-67
2022/01/22 11:07:02;;;;;;;10.32;3.92;;;;;;;;;;4947969;28;20453;-67
2022/01/22 11:09:30;;;;;;;7.78;3.88;;;;;;;;;;4950747;28;20037;-66
2022/01/22 11:11:57;;;;;;;6.53;3.63;;;;;;;;;;4963914;28;20499;-67
2022/01/22 11:14:23;;;;;;;8.35;3.85;;;;;;;;;;4949500;28;20337;-67
2022/01/22 11:16:49;;;;;;;9.07;3.67;;;;;;;;;;4964389;28;20033;-67
2022/01/22 11:19:17;;;;;;;7.82;3.78;;;;;;;;;;4949351;28;20456;-66
2022/01/22 11:21:47;;;;;;;8.05;4.05;;;;;;;;;;4949454;28;20101;-67
2022/01/22 11:24:14;;;;;;;9.23;4.10;;;;;;;;;;4950651;28;20375;-66
2022/01/22 11:26:40;;;;;;;10.52;3.92;;;;;;;;;;4947935;28;20393;-66
2022/01/22 11:29:06;;;;;;;8.52;3.67;;;;;;;;;;4964284;28;20440;-67
2022/01/22 11:31:33;;;;;;;7.85;4.03;;;;;;;;;;4948629;28;20447;-66
2022/01/22 11:33:59;;;;;;;9.20;3.65;;;;;;;;;;4951608;28;20436;-67
2022/01/22 11:36:27;;;;;;;6.82;3.13;;;;;;;;;;4951415;28;20444;-67
2022/01/22 11:38:58;;;;;;;7.57;3.60;;;;;;;;;;4953749;28;20487;-67
2022/01/22 11:41:24;;;;;;;8.10;3.47;;;;;;;;;;4951577;28;20415;-67
2022/01/22 11:46:37;;;;;;;7.75;3.65;;;;;;;;;;4953044;28;20488;-67
2022/01/22 11:49:16;;;;;;;7.38;3.55;;;;;;;;;;4951624;28;20464;-67
2022/01/22 11:51:43;;;;;;;8.52;3.13;;;;;;;;;;4952447;28;20498;-67
2022/01/22 11:54:09;;;;;;;8.48;3.58;;;;;;;;;;4968192;28;20421;-67
2022/01/22 11:56:46;;;;;;;8.85;3.42;;;;;;;;;;4952728;28;20506;-67
2022/01/22 11:59:12;;;;;;;5.80;3.42;;;;;;;;;;4953161;28;20428;-67
2022/01/22 12:01:43;;;;;;;10.48;3.22;;;;;;;;;;4953965;28;20492;-66
2022/01/22 12:04:10;;;;;;;6.78;3.10;;;;;;;;;;4952532;28;20368;-66
2022/01/22 12:06:36;;;;;;;8.50;3.40;;;;;;;;;;4965552;28;20376;-67
2022/01/22 12:09:24;;;;;;;7.53;3.80;;;;;;;;;;4971695;28;20527;-67
2022/01/22 12:14:48;;;;;;;7.88;2.92;;;;;;;;;;4947417;28;20611;-67
2022/01/22 12:17:20;;;;;;;8.15;3.60;;;;;;;;;;4971742;28;20456;-67
2022/01/22 12:19:52;;;;;;;10.77;3.78;;;;;;;;;;4954603;28;20459;-67
2022/01/22 12:22:40;;;;;;;7.68;3.65;;;;;;;;;;4971559;28;20099;-66
2022/01/22 12:25:08;;;;;;;9.52;3.72;;;;;;;;;;4964127;28;20046;-67
2022/01/22 12:27:47;;;;;;;7.53;3.20;;;;;;;;;;4971546;28;20025;-66
2022/01/22 12:30:14;;;;;;;;;;;;;;;;;;4971728;28;20030;-67
2022/01/22 12:32:46;;;;;;;7.22;3.33;;;;;;;;;;4972152;28;19944;-67
2022/01/22 12:35:15;;;;;;;5.60;3.00;;;;;;;;;;4953592;28;20033;-66
2022/01/22 12:37:45;;;;;;;8.95;4.07;;;;;;;;;;4971560;28;20404;-67
2022/01/22 12:40:12;;;;;;;8.55;3.63;;;;;;;;;;4953923;28;20432;-67
2022/01/22 12:42:53;;;;;;;13.20;4.47;;;;;;;;;;4952988;28;20029;-67
2022/01/22 12:45:20;;;;;;;11.18;3.50;;;;;;;;;;4971294;28;20355;-67
2022/01/22 12:47:47;;;;;;;7.70;3.35;;;;;;;;;;4970559;28;20339;-67
2022/01/22 12:50:12;;;;;;;11.68;4.03;;;;;;;;;;4972056;28;20451;-67
2022/01/22 12:52:40;;;;;;;10.82;3.85;;;;;;;;;;4952832;28;20429;-66
2022/01/22 12:55:18;;;;;;;6.38;3.80;;;;;;;;;;4955086;28;20026;-66
2022/01/22 12:57:44;;;;;;;8.65;3.90;;;;;;;;;;4953422;28;20030;-66
2022/01/22 13:00:16;;;;;;;6.75;3.30;;;;;;;;;;4971941;28;20048;-67
2022/01/22 13:02:42;;;;;;;8.85;2.70;;;;;;;;;;4971300;28;20451;-67
2022/01/22 13:05:10;;;;;;;10.60;3.92;;;;;;;;;;4970141;28;20474;-67
2022/01/22 13:08:06;;;;;;;12.25;3.55;;;;;;;;;;4952741;28;20452;-67
2022/01/22 13:10:43;;;;;;;13.23;3.53;;;;;;;;;;4969518;28;20384;-67
2022/01/22 13:13:10;;;;;;;9.88;4.15;;;;;;;;;;4970854;28;20048;-66
2022/01/22 13:15:36;;;;;;;9.88;3.13;;;;;;;;;;4953276;28;20447;-67
2022/01/22 13:18:03;;;;;;;11.65;4.00;;;;;;;;;;4970594;28;20108;-67
2022/01/22 13:20:35;;;;;;;8.63;4.03;;;;;;;;;;4953497;28;20333;-67
2022/01/22 13:23:15;;;;;;;6.50;3.45;;;;;;;;;;4953727;28;20435;-67
2022/01/22 13:25:40;;;;;;;12.15;4.38;;;;;;;;;;4952675;28;20041;-67
2022/01/22 13:28:10;;;;;;;9.30;4.03;;;;;;;;;;4952341;28;20037;-67
2022/01/22 13:30:42;;;;;;;7.20;3.40;;;;;;;;;;4953709;28;20329;-66
2022/01/22 13:33:18;;;;;;;12.25;3.50;;;;;;;;;;4953167;28;20333;-67
2022/01/22 13:36:07;;;;;;;13.65;4.35;;;;;;;;;;4954074;28;20428;-66
2022/01/22 13:45:04;;;;;;;8.40;3.30;;;;;;;;;;4951829;28;20383;-68
2022/01/22 13:49:27;;;;;;;7.43;3.72;;;;;;;;;;4956045;28;20531;-67
2022/01/22 13:51:58;;;;;;;10.30;3.90;;;;;;;;;;4952853;28;20469;-67
2022/01/22 13:54:45;;;;;;;7.75;3.55;;;;;;;;;;4952027;28;20329;-66
2022/01/22 13:57:12;;;;;;;10.70;3.70;;;;;;;;;;4952437;28;20108;-68
2022/01/22 13:59:40;;;;;;;6.32;3.30;;;;;;;;;;4952635;28;20329;-67
2022/01/22 14:04:46;;;;;;;9.60;3.42;;;;;;;;;;4970058;28;20332;-66
2022/01/22 14:07:14;;;;;;;10.07;4.68;;;;;;;;;;4968834;28;20118;-66
2022/01/22 14:09:53;;;;;;;11.82;4.55;;;;;;;;;;4969722;28;20451;-67
2022/01/22 14:12:18;;;;;;;8.52;3.70;;;;;;;;;;4969651;28;20455;-66
2022/01/22 14:15:25;;;;;;;10.20;4.22;;;;;;;;;;4952147;28;20435;-67
2022/01/22 14:18:22;;;;;;;9.27;4.40;;;;;;;;;;4961587;28;20444;-66
2022/01/22 14:20:44;;;;;;;9.05;4.05;;;;;;;;;;4968919;28;20361;-67
2022/01/22 14:23:13;;;;;;;6.93;3.28;;;;;;;;;;4969961;28;20435;-66
2022/01/22 14:25:56;;;;;;;12.98;5.47;;;;;;;;;;4969142;28;20475;-67
2022/01/22 14:28:35;;;;;;;8.20;4.00;;;;;;;;;;4969293;28;20429;-66
2022/01/22 14:31:00;;;;;;;10.00;3.95;;;;;;;;;;4969347;28;20352;-66
2022/01/22 14:33:26;;;;;;;8.93;4.43;;;;;;;;;;4951534;28;20044;-67
2022/01/22 14:36:00;;;;;;;10.68;4.55;;;;;;;;;;4969571;28;20347;-67
2022/01/22 14:38:39;;;;;;;13.13;4.75;;;;;;;;;;4951714;28;20493;-68
2022/01/22 14:46:49;;;;;;;12.23;5.13;;;;;;;;;;4969057;28;20321;-66
2022/01/22 14:49:15;;;;;;;11.25;3.58;;;;;;;;;;4951934;28;20558;-67
2022/01/22 14:51:40;;;;;;;6.93;3.90;;;;;;;;;;4952019;28;20428;-67
2022/01/22 14:54:06;;;;;;;12.48;3.78;;;;;;;;;;4969153;28;20360;-67
2022/01/22 14:56:31;;;;;;;12.50;5.70;;;;;;;;;;4952102;28;20502;-67
2022/01/22 14:58:56;;;;;;;8.05;3.33;;;;;;;;;;4968787;28;20451;-66
2022/01/22 15:01:21;;;;;;;12.18;4.55;;;;;;;;;;4970488;28;20504;-67
2022/01/22 15:03:47;;;;;;;12.68;5.80;;;;;;;;;;4968903;28;20022;-67
2022/01/22 15:06:12;;;;;;;9.57;4.57;;;;;;;;;;4948072;28;20452;-67
2022/01/22 15:08:37;;;;;;;12.05;4.38;;;;;;;;;;4953484;28;20429;-67
2022/01/22 15:11:03;;;;;;;13.38;4.40;;;;;;;;;;4951774;28;20156;-66
2022/01/22 15:13:28;;;;;;;8.30;4.55;;;;;;;;;;4954182;28;20471;-67
2022/01/22 15:15:59;;;;;;;12.15;4.20;;;;;;;;;;4951946;28;20137;-67
2022/01/22 15:19:13;;;;;;;14.75;5.35;;;;;;;;;;4953917;28;20504;-68
2022/01/22 15:21:11;;;;;;;11.30;5.35;;;;;;;;;;4948296;28;20454;-67
2022/01/22 15:23:37;;;;;;;9.60;4.20;;;;;;;;;;4951677;28;20413;-67
2022/01/22 15:26:03;;;;;;;10.85;4.82;;;;;;;;;;4951903;28;20446;-67
2022/01/22 15:28:44;;;;;;;8.68;4.50;;;;;;;;;;4953254;28;20467;-67
2022/01/22 15:31:26;;;;;;;15.55;5.93;;;;;;;;;;4952959;28;20499;-67
2022/01/22 15:34:05;;;;;;;12.63;5.10;;;;;;;;;;4953415;28;20061;-67
2022/01/22 15:36:30;;;;;;;10.60;5.43;;;;;;;;;;4954160;28;20037;-66
2022/01/22 15:38:55;;;;;;;22.17;7.28;;;;;;;;;;4951617;28;20495;-66
2022/01/22 15:41:21;;;;;;;13.85;4.40;;;;;;;;;;4953395;28;20459;-66
2022/01/22 15:43:47;;;;;;;12.98;4.78;;;;;;;;;;4951437;28;20500;-67
2022/01/22 15:46:12;;;;;;;10.82;4.20;;;;;;;;;;4954108;28;20486;-67
2022/01/22 15:48:38;;;;;;;10.70;4.95;;;;;;;;;;4952538;28;20536;-66
2022/01/22 15:51:04;;;;;;;16.23;5.93;;;;;;;;;;4954039;28;20448;-67
2022/01/22 15:53:29;;;;;;;21.02;6.65;;;;;;;;;;4952603;28;20448;-67
2022/01/22 15:55:54;;;;;;;27.60;7.80;;;;;;;;;;4952608;28;20432;-67
2022/01/22 15:58:20;;;;;;;10.90;5.25;;;;;;;;;;4952667;28;20081;-67
2022/01/22 16:00:45;;;;;;;19.73;5.97;;;;;;;;;;4952906;28;20510;-67
2022/01/22 16:03:11;;;;;;;14.93;5.78;;;;;;;;;;4952541;28;20368;-68
2022/01/22 16:05:36;;;;;;;13.52;5.32;;;;;;;;;;4951120;28;20440;-67
2022/01/22 16:08:03;;;;;;;19.38;5.97;;;;;;;;;;4952064;28;20092;-66
2022/01/22 16:10:28;;;;;;;21.00;6.70;;;;;;;;;;4967096;28;20499;-67
2022/01/22 16:12:54;;;;;;;18.13;6.72;;;;;;;;;;4952262;28;20472;-67
2022/01/22 16:15:19;;;;;;;12.40;4.85;;;;;;;;;;4953146;28;20400;-67
2022/01/22 16:17:45;;;;;;;16.80;5.72;;;;;;;;;;4951679;28;20022;-66
2022/01/22 16:20:11;;;;;;;12.95;6.38;;;;;;;;;;4950892;28;20424;-67
2022/01/22 16:22:36;;;;;;;15.32;6.13;;;;;;;;;;4951739;28;20476;-67